Time;durP1;ratioP1;P1;durP2;ratioP2;P2;SDS_P1;SDS_P2;PMS_P1;PMS_P2;Temp;Humidity;BMP_temperature;BMP_pressure;BME280_temperature;BME280_humidity;BME280_pressure;Samples;Min_cycle;Max_cycle;Signal;HPM_P1;HPM_P2
2022/06/19 00:00:17;;;;;;;5.25;2.83;;;;;;;16.97;66.77;100311.63;4409463;32;34163;-76
2022/06/19 00:02:45;;;;;;;6.25;2.40;;;;;;;16.97;66.84;100309.88;4402026;32;32731;-76
2022/06/19 00:05:14;;;;;;;5.93;2.60;;;;;;;17.14;66.43;100312.09;4413745;32;32126;-76
2022/06/19 00:07:42;;;;;;;4.85;2.58;;;;;;;17.28;66.08;100308.09;4431756;32;34783;-76
2022/06/19 00:10:10;;;;;;;8.70;3.20;;;;;;;17.09;66.72;100302.38;4419060;32;33806;-76
2022/06/19 00:12:39;;;;;;;5.53;2.40;;;;;;;17.09;66.84;100307.63;4415136;32;34212;-76
2022/06/19 00:15:07;;;;;;;4.62;2.50;;;;;;;17.13;66.70;100294.59;4411989;32;33835;-76
2022/06/19 00:17:35;;;;;;;5.20;2.72;;;;;;;16.97;67.09;100294.19;4415499;32;34683;-76
2022/06/19 00:20:04;;;;;;;5.18;2.90;;;;;;;16.84;67.72;100297.31;4417390;32;33773;-76
2022/06/19 00:22:31;;;;;;;5.28;2.62;;;;;;;16.74;68.13;100287.41;4423570;32;32712;-76
2022/06/19 00:24:59;;;;;;;7.07;2.50;;;;;;;16.60;68.64;100289.66;4412800;32;34444;-76
2022/06/19 00:27:27;;;;;;;5.22;2.90;;;;;;;16.63;68.48;100293.25;4419138;32;33872;-76
2022/06/19 00:29:54;;;;;;;5.25;2.78;;;;;;;16.82;67.75;100296.38;4414850;32;34751;-76
2022/06/19 00:32:25;;;;;;;4.03;2.55;;;;;;;16.62;68.30;100287.97;4424346;32;34664;-76
2022/06/19 00:34:53;;;;;;;6.32;3.05;;;;;;;16.49;68.91;100297.19;4419254;32;33636;-76
2022/06/19 00:37:20;;;;;;;4.80;2.60;;;;;;;16.57;68.44;100287.81;4423493;32;34539;-76
2022/06/19 00:39:48;;;;;;;4.65;2.37;;;;;;;16.57;68.48;100285.19;4422119;32;33935;-76
2022/06/19 00:42:16;;;;;;;5.20;2.72;;;;;;;16.50;68.67;100288.50;4426550;32;34373;-76
2022/06/19 00:44:46;;;;;;;4.82;2.55;;;;;;;16.30;69.39;100286.22;4399905;32;32855;-77
2022/06/19 00:47:19;;;;;;;5.07;2.67;;;;;;;16.26;69.27;100284.34;4410440;32;33892;-77
2022/06/19 00:49:56;;;;;;;4.47;2.40;;;;;;;16.24;69.38;100291.22;4422763;32;34636;-77
2022/06/19 00:52:35;;;;;;;5.22;2.60;;;;;;;16.22;69.45;100287.69;4406713;32;33741;-77
2022/06/19 00:55:14;;;;;;;4.47;2.45;;;;;;;16.24;69.44;100286.00;4402609;32;33427;-77
2022/06/19 00:57:45;;;;;;;4.53;2.78;;;;;;;16.14;70.08;100283.97;4403651;32;34251;-77
2022/06/19 01:00:16;;;;;;;5.10;2.80;;;;;;;16.36;69.12;100279.38;4424093;32;34099;-77
2022/06/19 01:02:44;;;;;;;4.70;2.50;;;;;;;16.51;68.51;100269.34;4397588;32;34719;-77
2022/06/19 01:05:13;;;;;;;4.03;2.65;;;;;;;16.75;67.63;100278.75;4399762;32;34375;-77
2022/06/19 01:07:42;;;;;;;5.07;2.85;;;;;;;16.80;67.23;100275.38;4406139;32;34517;-77
2022/06/19 01:10:12;;;;;;;4.82;2.55;;;;;;;16.78;67.58;100278.81;4395845;32;34018;-77
2022/06/19 01:12:42;;;;;;;5.10;2.85;;;;;;;16.79;67.77;100275.38;4402704;32;34721;-77
2022/06/19 01:15:11;;;;;;;4.10;2.60;;;;;;;16.91;67.21;100273.09;4400741;32;33563;-77
2022/06/19 01:17:39;;;;;;;4.12;2.50;;;;;;;16.80;67.58;100269.25;4400165;32;34543;-77
2022/06/19 01:20:11;;;;;;;5.22;2.60;;;;;;;16.62;68.06;100262.69;4403167;32;33917;-77
2022/06/19 01:22:54;;;;;;;5.40;2.72;;;;;;;16.68;67.99;100262.84;4400657;32;34282;-77
2022/06/19 01:25:26;;;;;;;4.65;2.75;;;;;;;16.68;67.99;100256.75;4392041;32;33754;-77
2022/06/19 01:30:44;;;;;;;5.25;2.70;;;;;;;16.45;68.99;100261.34;4387403;32;34698;-77
2022/06/19 01:33:16;;;;;;;5.03;2.78;;;;;;;16.56;68.75;100261.66;4388496;32;34152;-77
2022/06/19 01:35:46;;;;;;;5.75;2.65;;;;;;;16.63;68.55;100259.25;4383817;32;33739;-77
2022/06/19 01:38:16;;;;;;;4.93;3.10;;;;;;;16.55;68.82;100262.47;4394078;32;33935;-77
2022/06/19 01:40:47;;;;;;;4.47;2.60;;;;;;;16.56;68.71;100257.28;4387417;32;34119;-77
2022/06/19 01:43:15;;;;;;;4.12;2.70;;;;;;;16.35;69.62;100254.06;4382199;32;33615;-77
2022/06/19 01:45:49;;;;;;;6.05;2.78;;;;;;;16.27;69.83;100254.75;4397632;32;33610;-77
2022/06/19 01:48:16;;;;;;;5.43;2.80;;;;;;;16.25;69.90;100259.03;4404750;32;34711;-77
2022/06/19 01:50:44;;;;;;;3.60;2.15;;;;;;;16.23;70.20;100263.34;4387647;32;34019;-77
2022/06/19 01:53:25;;;;;;;5.22;2.90;;;;;;;16.19;70.15;100261.47;4397204;32;34728;-77
2022/06/19 01:55:53;;;;;;;3.72;2.42;;;;;;;16.32;69.49;100257.47;4386066;32;34270;-77
2022/06/19 01:58:23;;;;;;;4.72;2.50;;;;;;;16.26;69.95;100252.97;4382714;32;34250;-77
2022/06/19 02:00:51;;;;;;;4.70;2.67;;;;;;;16.24;69.94;100264.22;4385498;32;33150;-77
2022/06/19 02:03:26;;;;;;;6.07;2.97;;;;;;;16.17;70.34;100252.72;4389681;32;34299;-77
2022/06/19 02:05:54;;;;;;;5.45;2.40;;;;;;;16.19;70.07;100245.78;4386360;32;33118;-77
2022/06/19 02:08:22;;;;;;;4.10;2.42;;;;;;;16.05;70.63;100244.47;4401056;32;34732;-77
2022/06/19 02:10:50;;;;;;;4.45;2.42;;;;;;;16.11;70.57;100236.84;4389365;32;33593;-77
2022/06/19 02:13:19;;;;;;;4.78;2.58;;;;;;;16.05;70.65;100231.41;4393180;32;34272;-77
2022/06/19 02:15:49;;;;;;;5.53;2.85;;;;;;;15.97;70.80;100239.03;4400763;32;33524;-77
2022/06/19 02:18:22;;;;;;;5.15;2.60;;;;;;;16.02;70.58;100236.56;4391036;32;33894;-77
2022/06/19 02:20:51;;;;;;;6.05;2.55;;;;;;;16.03;70.77;100233.09;4391002;32;34567;-77
2022/06/19 02:23:20;;;;;;;6.18;2.90;;;;;;;16.03;70.84;100233.09;4402259;32;34788;-77
2022/06/19 02:25:48;;;;;;;4.43;2.90;;;;;;;16.07;70.80;100229.72;4399843;32;33721;-77
2022/06/19 02:28:16;;;;;;;6.18;2.80;;;;;;;15.95;71.12;100234.59;4400335;32;34549;-77
2022/06/19 02:30:45;;;;;;;5.57;2.85;;;;;;;16.29;69.68;100234.75;4400898;32;33674;-77
2022/06/19 02:33:14;;;;;;;5.15;2.95;;;;;;;16.42;69.42;100236.00;4385427;32;34845;-77
2022/06/19 02:35:42;;;;;;;4.05;2.22;;;;;;;16.25;70.05;100238.13;4391958;32;34597;-77
2022/06/19 02:38:15;;;;;;;3.90;2.60;;;;;;;16.26;70.31;100237.28;4408484;32;34665;-77
2022/06/19 02:40:54;;;;;;;5.65;2.70;;;;;;;16.19;70.20;100240.56;4394923;32;34661;-77
2022/06/19 02:43:27;;;;;;;4.60;2.97;;;;;;;16.34;69.67;100234.00;4392221;32;33656;-77
2022/06/19 02:45:56;;;;;;;5.40;2.62;;;;;;;16.25;70.06;100232.91;4401287;32;34420;-77
2022/06/19 02:48:26;;;;;;;4.45;2.50;;;;;;;16.10;70.77;100232.44;4396707;32;33917;-77
2022/06/19 02:50:56;;;;;;;6.62;2.80;;;;;;;16.42;69.51;100232.50;4407669;32;33972;-77
2022/06/19 02:53:25;;;;;;;6.32;3.00;;;;;;;16.57;68.64;100235.50;4386752;32;33395;-77
2022/06/19 02:55:53;;;;;;;4.28;2.90;;;;;;;16.58;68.71;100229.44;4400608;32;33204;-77
2022/06/19 02:58:20;;;;;;;6.87;3.00;;;;;;;16.76;68.14;100228.19;4413252;32;34266;-75
2022/06/19 03:00:49;;;;;;;4.68;3.08;;;;;;;16.59;68.69;100228.62;4382099;32;34653;-75
2022/06/19 03:03:29;;;;;;;6.25;3.15;;;;;;;17.24;66.44;100222.47;4376684;32;33640;-75
2022/06/19 03:05:57;;;;;;;5.75;2.60;;;;;;;17.93;64.00;100223.22;4392012;32;34381;-75
2022/06/19 03:08:24;;;;;;;5.60;2.87;;;;;;;17.37;65.57;100228.88;4405837;32;33446;-75
2022/06/19 03:10:52;;;;;;;4.18;2.70;;;;;;;17.19;66.17;100229.31;4400141;32;34720;-75
2022/06/19 03:13:21;;;;;;;5.68;2.22;;;;;;;16.99;67.12;100227.06;4399595;32;32706;-75
2022/06/19 03:16:07;;;;;;;6.47;3.15;;;;;;;16.78;68.37;100221.25;4397616;32;33634;-75
2022/06/19 03:18:36;;;;;;;4.47;2.85;;;;;;;17.20;66.69;100220.63;4398522;32;34595;-75
2022/06/19 03:21:04;;;;;;;6.37;2.85;;;;;;;17.01;67.46;100224.50;4397392;32;33814;-75
2022/06/19 03:23:32;;;;;;;6.43;2.90;;;;;;;17.09;67.60;100220.34;4403036;32;34296;-75
2022/06/19 03:26:00;;;;;;;5.10;2.55;;;;;;;17.89;64.26;100214.41;4399608;32;34286;-75
2022/06/19 03:28:28;;;;;;;4.50;2.58;;;;;;;18.12;63.67;100212.25;4395638;32;33718;-75
2022/06/19 03:30:56;;;;;;;5.57;2.55;;;;;;;17.26;66.55;100216.41;4394413;32;33836;-75
2022/06/19 03:33:24;;;;;;;5.30;3.00;;;;;;;17.21;66.69;100210.19;4399368;32;34833;-75
2022/06/19 03:35:52;;;;;;;6.55;2.95;;;;;;;16.60;68.82;100206.84;4378430;32;33803;-75
2022/06/19 03:38:20;;;;;;;5.00;2.90;;;;;;;16.48;69.70;100216.97;4374819;32;33178;-75
2022/06/19 03:40:48;;;;;;;5.18;3.15;;;;;;;16.61;69.23;100208.62;4377919;32;32400;-75
2022/06/19 03:43:16;;;;;;;5.57;2.80;;;;;;;16.74;68.78;100203.72;4385768;32;34125;-75
2022/06/19 03:45:43;;;;;;;5.82;2.87;;;;;;;16.75;69.11;100210.72;4399852;32;33511;-75
2022/06/19 03:48:12;;;;;;;7.15;3.10;;;;;;;16.58;69.84;100218.12;4400766;32;34543;-74
2022/06/19 03:50:41;;;;;;;6.10;3.25;;;;;;;16.75;69.76;100218.56;4390491;32;33662;-75
2022/06/19 03:53:09;;;;;;;6.12;3.08;;;;;;;17.56;66.68;100222.31;4393736;32;34201;-75
2022/06/19 03:55:36;;;;;;;5.35;3.28;;;;;;;16.84;69.58;100216.22;4397365;32;34218;-75
2022/06/19 03:58:04;;;;;;;5.47;3.03;;;;;;;16.71;69.99;100213.25;4386139;32;32570;-75
2022/06/19 04:00:31;;;;;;;5.85;3.10;;;;;;;16.54;70.48;100217.16;4395710;32;34709;-75
2022/06/19 04:02:59;;;;;;;4.20;2.50;;;;;;;16.88;69.28;100211.13;4402324;32;34167;-75
2022/06/19 04:05:27;;;;;;;4.32;2.80;;;;;;;16.69;70.01;100209.72;4395297;32;33748;-75
2022/06/19 04:07:55;;;;;;;6.12;2.92;;;;;;;16.93;69.53;100211.22;4401279;32;33838;-75
2022/06/19 04:10:22;;;;;;;6.18;2.80;;;;;;;17.03;68.89;100207.97;4413526;32;34667;-75
2022/06/19 04:12:53;;;;;;;4.18;2.70;;;;;;;17.48;67.72;100204.72;4421658;32;34104;-75
2022/06/19 04:15:21;;;;;;;5.65;2.85;;;;;;;17.44;67.74;100210.75;4415933;32;33183;-75
2022/06/19 04:17:48;;;;;;;5.03;2.70;;;;;;;17.26;68.06;100205.06;4411218;32;34400;-75
2022/06/19 04:20:16;;;;;;;8.45;3.00;;;;;;;17.54;67.48;100210.94;4417758;32;34561;-75
2022/06/19 04:22:43;;;;;;;5.03;3.15;;;;;;;17.72;66.89;100213.97;4428981;32;34188;-75
2022/06/19 04:25:14;;;;;;;5.95;2.92;;;;;;;17.92;66.27;100210.94;4410261;32;34337;-74
2022/06/19 04:28:01;;;;;;;4.90;2.92;;;;;;;17.60;67.33;100211.09;4411693;32;33961;-74
2022/06/19 04:30:30;;;;;;;5.28;2.90;;;;;;;17.68;67.14;100209.53;4416943;32;33997;-75
2022/06/19 04:32:57;;;;;;;6.93;3.28;;;;;;;17.90;66.77;100208.28;4411334;32;34165;-75
2022/06/19 04:35:25;;;;;;;5.57;2.78;;;;;;;18.30;65.55;100190.75;4426556;32;33628;-75
2022/06/19 04:37:53;;;;;;;6.87;2.70;;;;;;;19.13;62.50;100191.41;4418572;32;33870;-75
2022/06/19 04:40:20;;;;;;;7.22;3.12;;;;;;;18.48;64.62;100198.09;4409952;32;34590;-75
2022/06/19 04:42:48;;;;;;;5.10;3.15;;;;;;;18.33;66.12;100201.31;4416355;32;34008;-75
2022/06/19 04:45:16;;;;;;;6.10;2.70;;;;;;;18.49;65.77;100202.50;4416220;32;34267;-75
2022/06/19 04:47:43;;;;;;;4.97;3.10;;;;;;;18.50;65.85;100203.37;4415839;32;34130;-75
2022/06/19 04:50:10;;;;;;;6.12;3.30;;;;;;;18.49;66.50;100210.37;4417552;32;33564;-75
2022/06/19 04:52:38;;;;;;;5.47;3.03;;;;;;;18.73;65.59;100203.81;4425416;32;34002;-75
2022/06/19 04:55:06;;;;;;;5.40;3.37;;;;;;;18.81;66.04;100210.09;4411394;32;33606;-75
2022/06/19 04:57:33;;;;;;;5.70;3.08;;;;;;;18.79;65.07;100211.78;4415186;32;34740;-75
2022/06/19 05:00:01;;;;;;;4.85;3.20;;;;;;;18.95;64.85;100208.62;4412995;32;34710;-74
2022/06/19 05:02:28;;;;;;;5.30;2.92;;;;;;;19.38;63.24;100216.31;4428982;32;33807;-75
2022/06/19 05:04:56;;;;;;;4.82;2.90;;;;;;;20.23;60.63;100208.75;4422730;32;33653;-75
2022/06/19 05:07:24;;;;;;;5.40;2.70;;;;;;;20.62;59.97;100212.72;4425482;32;33850;-75
2022/06/19 05:09:51;;;;;;;6.20;3.35;;;;;;;20.80;59.59;100219.03;4418035;32;33925;-75
2022/06/19 05:12:19;;;;;;;6.65;3.35;;;;;;;21.06;58.90;100223.69;4414818;32;34836;-75
2022/06/19 05:14:46;;;;;;;6.37;3.10;;;;;;;21.48;57.54;100224.91;4416370;32;33673;-75
2022/06/19 05:17:14;;;;;;;5.65;3.42;;;;;;;21.51;56.84;100220.53;4414995;32;34729;-75
2022/06/19 05:19:42;;;;;;;5.00;3.00;;;;;;;21.49;57.08;100224.94;4411328;32;32474;-75
2022/06/19 05:22:10;;;;;;;5.70;2.80;;;;;;;21.32;57.56;100230.03;4410160;32;34756;-75
2022/06/19 05:24:38;;;;;;;5.43;2.87;;;;;;;21.53;56.31;100231.97;4412951;32;34371;-75
2022/06/19 05:27:09;;;;;;;5.18;2.53;;;;;;;21.21;57.23;100237.88;4414635;32;32525;-75
2022/06/19 05:29:38;;;;;;;5.75;3.00;;;;;;;21.35;56.25;100230.06;4412825;32;33840;-75
2022/06/19 05:32:06;;;;;;;9.52;3.10;;;;;;;20.60;58.94;100219.72;4412754;32;33879;-75
2022/06/19 05:34:35;;;;;;;5.15;2.70;;;;;;;21.40;57.04;100224.81;4417487;32;33435;-75
2022/06/19 05:37:04;;;;;;;4.70;2.70;;;;;;;22.03;54.32;100217.34;4420383;32;34036;-75
2022/06/19 05:39:31;;;;;;;4.55;2.92;;;;;;;22.50;53.04;100227.25;4404047;32;33169;-75
2022/06/19 05:41:59;;;;;;;4.80;3.40;;;;;;;23.00;51.65;100214.09;4415804;32;33934;-75
2022/06/19 05:44:28;;;;;;;4.68;3.00;;;;;;;23.00;51.82;100216.75;4424052;32;34284;-76
2022/06/19 05:46:56;;;;;;;5.15;3.00;;;;;;;23.09;51.47;100220.31;4422978;32;33886;-76
2022/06/19 05:49:23;;;;;;;5.90;3.50;;;;;;;22.80;52.51;100217.59;4420209;32;34941;-75
2022/06/19 05:51:51;;;;;;;4.65;2.90;;;;;;;22.07;53.87;100223.50;4409776;32;34221;-75
2022/06/19 05:54:19;;;;;;;6.28;3.08;;;;;;;22.70;52.45;100215.84;4410460;32;33851;-75
2022/06/19 05:56:46;;;;;;;5.80;3.05;;;;;;;22.93;52.36;100219.38;4415794;32;33910;-75
2022/06/19 05:59:14;;;;;;;5.00;2.90;;;;;;;22.04;55.75;100227.03;4414160;32;34688;-75
2022/06/19 06:01:41;;;;;;;4.45;2.75;;;;;;;22.92;53.48;100222.91;4409804;32;34360;-75
2022/06/19 06:04:09;;;;;;;6.05;3.00;;;;;;;23.53;51.76;100227.34;4411982;32;33627;-76
2022/06/19 06:06:39;;;;;;;4.75;3.15;;;;;;;23.05;52.42;100228.25;4408123;32;33960;-75
2022/06/19 06:09:08;;;;;;;4.12;2.47;;;;;;;23.69;51.54;100222.91;4415154;32;34405;-75
2022/06/19 06:11:36;;;;;;;3.53;2.30;;;;;;;23.41;50.53;100215.88;4403107;32;34240;-75
2022/06/19 06:14:04;;;;;;;3.90;2.70;;;;;;;24.00;49.85;100217.56;4420256;32;33515;-75
2022/06/19 06:16:31;;;;;;;4.47;2.58;;;;;;;23.67;50.37;100222.03;4417564;32;34182;-75
2022/06/19 06:18:59;;;;;;;5.60;2.70;;;;;;;24.45;49.50;100210.28;4415898;32;34354;-76
2022/06/19 06:21:27;;;;;;;5.12;2.53;;;;;;;23.91;49.12;100220.22;4414441;32;33736;-76
2022/06/19 06:23:55;;;;;;;4.07;2.62;;;;;;;24.41;48.66;100213.84;4402798;32;33562;-76
2022/06/19 06:26:26;;;;;;;7.43;2.67;;;;;;;23.67;49.76;100219.38;4413312;32;33663;-76
2022/06/19 06:28:55;;;;;;;6.85;3.05;;;;;;;24.33;48.78;100220.94;4405779;32;34349;-76
2022/06/19 06:31:23;;;;;;;4.18;2.55;;;;;;;24.08;49.02;100226.34;4413279;32;34937;-76
2022/06/19 06:33:57;;;;;;;4.07;2.40;;;;;;;23.40;50.05;100225.59;4415251;32;33747;-76
2022/06/19 06:36:26;;;;;;;4.18;2.72;;;;;;;24.61;48.67;100220.81;4416643;32;33794;-76
2022/06/19 06:38:54;;;;;;;4.10;2.40;;;;;;;25.22;47.41;100220.41;4417166;32;34166;-78
2022/06/19 06:41:22;;;;;;;4.07;2.90;;;;;;;24.92;47.77;100222.38;4409779;32;34714;-76
2022/06/19 06:43:49;;;;;;;4.43;2.22;;;;;;;24.87;47.09;100223.31;4408118;32;34202;-76
2022/06/19 06:46:20;;;;;;;4.68;2.58;;;;;;;24.22;47.53;100217.47;4401041;32;32476;-76
2022/06/19 06:48:50;;;;;;;5.10;2.33;;;;;;;24.00;48.24;100225.50;4414958;32;34647;-76
2022/06/19 06:51:21;;;;;;;4.15;2.85;;;;;;;24.07;48.31;100224.59;4419440;32;34721;-76
2022/06/19 06:53:49;;;;;;;4.55;2.75;;;;;;;24.45;48.63;100226.16;4405314;32;34226;-77
2022/06/19 06:56:18;;;;;;;4.50;2.50;;;;;;;24.93;47.17;100224.13;4419296;32;34003;-77
2022/06/19 06:58:45;;;;;;;8.10;2.50;;;;;;;24.86;44.75;100227.75;4415264;32;34610;-78
2022/06/19 07:01:18;;;;;;;4.68;2.53;;;;;;;24.70;43.99;100220.75;4404393;32;34145;-78
2022/06/19 07:03:52;;;;;;;4.33;2.13;;;;;;;24.81;43.85;100218.94;4417399;32;33781;-77
2022/06/19 07:06:19;;;;;;;4.50;2.22;;;;;;;24.87;42.39;100229.47;4419096;32;34683;-77
2022/06/19 07:08:47;;;;;;;4.60;2.40;;;;;;;25.16;43.06;100233.69;4420815;32;34053;-78
2022/06/19 07:11:20;;;;;;;4.62;2.20;;;;;;;25.23;42.08;100224.84;4420576;32;34129;-78
2022/06/19 07:13:48;;;;;;;4.30;2.12;;;;;;;25.46;41.82;100229.06;4422873;32;33601;-77
2022/06/19 07:16:16;;;;;;;3.65;1.90;;;;;;;25.46;40.82;100223.75;4424293;32;34007;-77
2022/06/19 07:18:44;;;;;;;4.32;2.05;;;;;;;25.70;41.27;100223.50;4411203;32;33917;-78
2022/06/19 07:21:12;;;;;;;4.47;2.25;;;;;;;25.94;41.90;100218.88;4424031;32;33857;-78
2022/06/19 07:23:40;;;;;;;5.70;2.20;;;;;;;25.83;40.67;100218.06;4406866;32;34367;-78
2022/06/19 07:26:11;;;;;;;5.30;2.30;;;;;;;25.79;39.29;100216.34;4420133;32;33163;-77
2022/06/19 07:28:40;;;;;;;4.18;2.10;;;;;;;25.89;39.72;100233.91;4400276;32;33741;-78
2022/06/19 07:31:08;;;;;;;3.70;2.10;;;;;;;26.34;40.01;100220.13;4420117;32;34150;-76
2022/06/19 07:33:37;;;;;;;5.57;2.17;;;;;;;25.97;39.62;100218.81;4418698;32;33576;-77
2022/06/19 07:36:06;;;;;;;4.53;2.22;;;;;;;26.32;38.90;100217.50;4411969;32;33797;-82
2022/06/19 07:38:34;;;;;;;6.72;2.42;;;;;;;26.82;39.44;100207.94;4415146;32;34593;-76
2022/06/19 07:41:02;;;;;;;3.97;2.50;;;;;;;27.03;38.79;100205.88;4418136;32;34081;-78
2022/06/19 07:43:30;;;;;;;6.70;2.42;;;;;;;26.24;37.60;100208.75;4424273;32;33632;-78
2022/06/19 07:45:58;;;;;;;4.28;2.40;;;;;;;26.85;38.93;100207.91;4408463;32;34001;-77
2022/06/19 07:51:19;;;;;;;4.18;2.08;;;;;;;26.46;38.50;100204.91;4414596;32;34202;-77
2022/06/19 07:53:47;;;;;;;4.25;2.60;;;;;;;26.42;38.00;100208.50;4414159;32;33303;-77
2022/06/19 07:56:15;;;;;;;4.25;2.12;;;;;;;27.07;38.14;100202.25;4419573;32;34558;-76
2022/06/19 07:58:43;;;;;;;3.78;2.55;;;;;;;27.02;37.51;100194.34;4399817;32;33832;-78
2022/06/19 08:01:11;;;;;;;5.43;2.17;;;;;;;27.54;38.96;100192.56;4405205;32;32451;-76
2022/06/19 08:03:39;;;;;;;4.85;1.73;;;;;;;27.38;35.73;100191.09;4415013;32;34369;-78
2022/06/19 08:06:07;;;;;;;4.93;2.40;;;;;;;27.21;36.50;100192.25;4415500;32;34017;-77
2022/06/19 08:08:35;;;;;;;4.05;2.30;;;;;;;27.13;36.24;100186.19;4414360;32;33969;-76
2022/06/19 08:11:04;;;;;;;4.93;2.42;;;;;;;27.25;36.82;100180.72;4414753;32;34155;-78
2022/06/19 08:13:33;;;;;;;4.78;2.50;;;;;;;27.45;37.02;100177.66;4415188;32;33503;-77
2022/06/19 08:16:04;;;;;;;4.75;2.22;;;;;;;27.21;36.33;100170.97;4423760;32;34043;-78
2022/06/19 08:18:33;;;;;;;5.60;2.65;;;;;;;27.52;36.18;100178.41;4417139;32;34098;-78
2022/06/19 08:21:01;;;;;;;4.78;2.72;;;;;;;27.63;36.23;100167.59;4413508;32;33987;-77
2022/06/19 08:23:30;;;;;;;5.53;2.30;;;;;;;27.74;36.00;100162.03;4412919;32;34416;-76
2022/06/19 08:25:58;;;;;;;3.78;1.98;;;;;;;27.70;34.88;100158.59;4411369;32;34324;-79
2022/06/19 08:30:59;;;;;;;4.28;2.40;;;;;;;28.22;34.38;100161.94;4419440;32;33821;-78
2022/06/19 08:33:26;;;;;;;4.97;2.60;;;;;;;28.22;33.90;100154.84;4414116;32;33619;-78
2022/06/19 08:35:58;;;;;;;3.45;2.00;;;;;;;28.71;33.04;100163.53;4413698;32;33557;-78
2022/06/19 08:38:33;;;;;;;3.53;2.00;;;;;;;29.11;33.37;100165.19;4411593;32;33951;-80
2022/06/19 08:41:00;;;;;;;;;;;;;;;28.63;33.09;100154.84;4421191;32;34208;-79
2022/06/19 08:43:40;;;;;;;5.53;2.40;;;;;;;28.41;32.43;100157.97;4413241;32;33297;-79
2022/06/19 08:46:16;;;;;;;6.75;2.25;;;;;;;28.12;32.00;100152.41;4417941;32;34772;-80
2022/06/19 08:48:44;;;;;;;3.87;2.15;;;;;;;28.44;32.83;100160.56;4403510;32;32944;-77
2022/06/19 08:51:46;;;;;;;4.82;2.20;;;;;;;28.35;33.15;100160.75;4411896;32;34745;-77
2022/06/19 08:54:27;;;;;;;4.80;2.50;;;;;;;28.78;34.06;100162.47;4407818;32;33388;-78
2022/06/19 08:57:27;;;;;;;3.65;2.15;;;;;;;29.32;32.81;100176.25;4419064;32;33227;-77
2022/06/19 09:00:42;;;;;;;8.38;2.10;;;;;;;28.43;31.71;100156.16;4419637;32;34950;-76
2022/06/19 09:03:20;;;;;;;3.08;2.10;;;;;;;29.20;32.31;100161.44;4410596;32;34641;-77
2022/06/19 09:05:55;;;;;;;4.90;2.03;;;;;;;29.37;32.17;100152.97;4404799;32;33533;-79
2022/06/19 09:08:47;;;;;;;3.70;1.98;;;;;;;28.95;31.96;100155.81;4394907;32;33746;-78
2022/06/19 09:11:22;;;;;;;6.43;2.55;;;;;;;29.39;31.46;100157.34;4403280;32;34675;-79
2022/06/19 09:14:21;;;;;;;7.30;2.55;;;;;;;30.14;31.01;100150.81;4426143;32;35148;-78
2022/06/19 09:17:08;;;;;;;4.72;2.28;;;;;;;30.19;31.46;100148.87;4422285;32;35082;-80
2022/06/19 09:19:46;;;;;;;5.15;2.10;;;;;;;30.36;30.73;100138.56;4419833;32;33938;-79
2022/06/19 09:22:22;;;;;;;3.97;2.12;;;;;;;31.12;29.70;100141.47;4406117;32;33175;-79
2022/06/19 09:25:18;;;;;;;4.85;2.00;;;;;;;30.06;30.88;100142.16;4402550;32;34215;-79
2022/06/19 09:28:04;;;;;;;4.53;1.83;;;;;;;29.04;31.80;100134.25;4400769;32;33241;-76
2022/06/19 09:30:44;;;;;;;6.12;4.05;;;;;;;29.40;31.93;100136.91;4412798;32;32915;-78
2022/06/19 09:33:15;;;;;;;5.07;2.30;;;;;;;29.72;32.35;100121.75;4423270;32;34790;-79
2022/06/19 09:35:54;;;;;;;3.28;2.00;;;;;;;29.79;31.82;100123.38;4400966;32;34140;-78
2022/06/19 09:38:32;;;;;;;4.72;2.03;;;;;;;29.84;31.00;100126.75;4401687;32;32221;-77
2022/06/19 09:41:03;;;;;;;5.18;2.20;;;;;;;30.12;28.97;100121.47;4409107;32;34769;-76
2022/06/19 09:43:37;;;;;;;6.07;2.15;;;;;;;29.87;30.15;100121.34;4408791;32;32292;-76
2022/06/19 09:46:13;;;;;;;4.93;2.22;;;;;;;30.24;30.94;100125.56;4399281;32;33055;-76
2022/06/19 09:49:06;;;;;;;3.83;2.00;;;;;;;29.74;30.17;100119.94;4410890;32;34480;-77
2022/06/19 09:51:50;;;;;;;4.90;2.30;;;;;;;29.66;29.92;100127.28;4417176;32;34572;-77
2022/06/19 09:54:25;;;;;;;6.30;2.70;;;;;;;29.99;29.72;100120.97;4399892;32;34256;-76
2022/06/19 09:56:58;;;;;;;7.53;2.97;;;;;;;30.19;30.64;100124.81;4416917;32;33787;-76
2022/06/19 09:59:57;;;;;;;5.55;2.12;;;;;;;30.42;28.15;100104.56;4407926;32;34336;-76
2022/06/19 10:02:45;;;;;;;4.62;2.30;;;;;;;30.25;29.11;100105.94;4418158;32;33719;-77
2022/06/19 10:28:29;;;;;;;5.55;2.05;;;;;;;31.35;26.77;100087.09;4310453;26;35308;-86
2022/06/19 10:34:40;;;;;;;3.78;1.85;;;;;;;31.29;26.45;100074.84;4437980;32;34704;-87
2022/06/19 10:37:17;;;;;;;2.87;1.87;;;;;;;30.86;27.70;100062.09;4429005;32;33424;-86
2022/06/19 10:39:51;;;;;;;5.07;1.80;;;;;;;30.13;27.55;100058.22;4422935;32;32598;-87
2022/06/19 10:42:28;;;;;;;3.47;1.87;;;;;;;30.14;28.99;100068.88;4422971;32;34622;-89
2022/06/19 10:45:19;;;;;;;4.35;1.80;;;;;;;30.90;29.28;100061.09;4425865;32;34512;-87
2022/06/19 10:48:08;;;;;;;3.58;1.85;;;;;;;31.23;27.09;100053.63;4418476;32;33463;-89
2022/06/19 10:51:00;;;;;;;2.50;1.60;;;;;;;30.95;27.40;100048.44;4430573;32;34621;-86
2022/06/19 10:53:28;;;;;;;7.28;1.90;;;;;;;30.62;28.02;100047.75;4426712;32;33985;-88
2022/06/19 10:56:09;;;;;;;4.90;2.00;;;;;;;30.49;27.62;100044.63;4439495;32;33883;-89
2022/06/19 10:58:37;;;;;;;4.37;1.77;;;;;;;31.14;27.87;100040.63;4447312;32;34604;-86
2022/06/19 11:01:09;;;;;;;4.53;1.48;;;;;;;31.59;28.75;100042.53;4420950;32;32052;-86
2022/06/19 11:07:09;;;;;;;4.57;1.55;;;;;;;30.43;26.74;100039.50;4420421;32;32380;-87
2022/06/19 11:09:44;;;;;;;3.78;1.80;;;;;;;30.54;26.83;100037.34;4413188;32;32151;-86
2022/06/19 11:12:37;;;;;;;3.90;1.77;;;;;;;31.30;25.68;100038.25;4427141;32;32367;-87
2022/06/19 11:15:31;;;;;;;3.10;1.77;;;;;;;31.69;26.54;100029.66;4405946;32;35314;-87
2022/06/19 11:18:25;;;;;;;3.97;1.55;;;;;;;32.08;25.61;100021.00;4415654;32;34090;-90
2022/06/19 11:21:02;;;;;;;3.50;1.70;;;;;;;32.13;25.15;100029.72;4424394;32;32206;-88
2022/06/19 11:23:41;;;;;;;3.80;1.37;;;;;;;31.37;25.27;100029.06;4425039;32;34186;-88
2022/06/19 11:26:14;;;;;;;5.03;1.50;;;;;;;31.97;26.79;100031.25;4424116;32;33793;-89
2022/06/19 11:28:55;;;;;;;3.87;1.40;;;;;;;31.75;25.95;100029.41;4411627;32;33825;-89
2022/06/19 11:31:32;;;;;;;7.30;1.90;;;;;;;32.20;24.79;100009.81;4410686;32;32977;-88
2022/06/19 11:37:24;;;;;;;3.72;1.48;;;;;;;32.44;25.02;100004.34;4425908;32;33963;-87
2022/06/19 11:39:58;;;;;;;3.85;1.48;;;;;;;32.25;23.60;99997.06;4422102;32;34130;-88
2022/06/19 11:42:34;;;;;;;3.97;1.48;;;;;;;31.85;25.16;99997.78;4437354;32;33549;-90
2022/06/19 11:45:14;;;;;;;4.57;1.17;;;;;;;31.60;25.56;100004.09;4425113;32;34008;-87
2022/06/19 11:51:24;;;;;;;1.90;1.15;;;;;;;31.29;25.32;99999.03;4436038;32;34779;-87
2022/06/19 11:53:57;;;;;;;3.53;1.42;;;;;;;31.81;24.69;99997.03;4409228;32;31811;-88
2022/06/19 11:56:35;;;;;;;2.72;1.20;;;;;;;32.12;25.03;100006.53;4386410;32;897971;-89
2022/06/19 11:59:31;;;;;;;;;;;;;;;;;;;;;
2022/06/19 12:02:58;;;;;;;2.67;1.30;;;;;;;31.27;25.35;99984.81;4427218;32;34160;-88
2022/06/19 12:05:33;;;;;;;2.45;1.33;;;;;;;31.74;25.67;99990.19;4404074;32;33891;-87
2022/06/19 12:08:16;;;;;;;2.92;1.45;;;;;;;32.06;25.32;99982.69;4411634;32;33813;-88
2022/06/19 12:10:50;;;;;;;4.53;1.40;;;;;;;31.52;25.13;99991.03;4420022;32;32527;-89
2022/06/19 12:17:32;;;;;;;1.90;1.05;;;;;;;31.48;25.14;99984.03;4412314;32;34335;-89
2022/06/19 12:23:22;;;;;;;3.62;1.40;;;;;;;31.60;25.44;99971.09;4426104;32;34861;-86
2022/06/19 12:26:09;;;;;;;3.92;1.40;;;;;;;31.85;23.64;99963.84;4401526;32;33129;-87
2022/06/19 12:29:33;;;;;;;2.85;1.30;;;;;;;31.13;24.59;99966.62;4410971;32;34333;-93
2022/06/19 12:32:35;;;;;;;5.35;1.52;;;;;;;31.33;25.41;99956.03;4353068;32;34693;-88
2022/06/19 12:35:25;;;;;;;3.60;1.25;;;;;;;31.75;24.70;99954.44;4416313;32;34892;-88
2022/06/19 12:37:53;;;;;;;3.55;1.30;;;;;;;32.09;25.05;99961.13;4401696;32;34218;-88
2022/06/19 12:40:24;;;;;;;2.87;1.20;;;;;;;31.84;24.58;99947.84;4412782;32;32704;-88
2022/06/19 12:43:47;;;;;;;2.00;1.25;;;;;;;31.42;25.02;99940.56;4397476;32;32319;-86